Time;durP1;ratioP1;P1;durP2;ratioP2;P2;SDS_P1;SDS_P2;PMS_P1;PMS_P2;Temp;Humidity;BMP_temperature;BMP_pressure;BME280_temperature;BME280_humidity;BME280_pressure;Samples;Min_cycle;Max_cycle;Signal;HPM_P1;HPM_P2
2023/04/09 00:01:10;;;;;;;12.40;11.27;;;14.20;53.60;;;;;;5031504;28;20677;-48
2023/04/09 00:03:37;;;;;;;10.97;9.97;;;14.20;53.80;;;;;;5032187;28;20247;-53
2023/04/09 00:06:03;;;;;;;11.10;10.10;;;14.30;54.00;;;;;;5032683;28;20451;-53
2023/04/09 00:08:29;;;;;;;10.87;9.83;;;14.30;54.00;;;;;;5032642;28;20523;-52
2023/04/09 00:10:56;;;;;;;12.47;11.17;;;14.30;54.10;;;;;;5032781;28;20971;-53
2023/04/09 00:13:21;;;;;;;11.40;10.40;;;14.30;54.10;;;;;;5031872;28;20668;-51
2023/04/09 00:15:47;;;;;;;11.97;10.90;;;14.30;54.10;;;;;;5032471;28;20454;-52
2023/04/09 00:18:15;;;;;;;10.30;9.40;;;14.30;54.10;;;;;;5032278;28;20318;-52
2023/04/09 00:20:40;;;;;;;11.17;10.07;;;14.20;53.90;;;;;;5032507;28;20221;-52
2023/04/09 00:23:06;;;;;;;10.50;9.50;;;14.20;53.80;;;;;;5031974;28;20459;-49
2023/04/09 00:25:32;;;;;;;10.80;9.80;;;14.20;53.90;;;;;;5032563;28;20280;-52
2023/04/09 00:27:58;;;;;;;11.63;10.50;;;14.20;53.70;;;;;;5030507;28;20607;-53
2023/04/09 00:30:23;;;;;;;11.70;10.50;;;14.20;53.80;;;;;;5032070;28;20193;-52
2023/04/09 00:32:49;;;;;;;13.10;9.37;;;14.20;53.90;;;;;;5032086;28;20207;-53
2023/04/09 00:35:16;;;;;;;11.13;10.03;;;14.20;53.90;;;;;;5031763;28;20229;-52
2023/04/09 00:37:42;;;;;;;11.03;9.80;;;14.20;53.90;;;;;;5031050;28;20201;-53
2023/04/09 00:40:08;;;;;;;10.97;9.90;;;14.20;54.00;;;;;;5031949;28;20867;-50
2023/04/09 00:42:35;;;;;;;10.40;9.23;;;14.20;54.10;;;;;;5031957;28;20424;-53
2023/04/09 00:45:01;;;;;;;10.70;9.70;;;14.20;54.10;;;;;;5031592;28;20452;-53
2023/04/09 00:47:29;;;;;;;10.17;9.20;;;14.20;54.10;;;;;;5031723;28;20468;-50
2023/04/09 00:49:56;;;;;;;10.93;9.83;;;14.20;54.10;;;;;;5031621;28;20201;-49
2023/04/09 00:52:22;;;;;;;12.07;10.77;;;14.20;54.60;;;;;;5031644;28;20435;-49
2023/04/09 00:54:50;;;;;;;13.67;12.27;;;14.20;54.40;;;;;;5029468;28;21066;-52
2023/04/09 00:57:16;;;;;;;12.83;11.67;;;14.20;54.60;;;;;;5031549;28;20430;-51
2023/04/09 00:59:43;;;;;;;15.50;11.53;;;14.20;54.60;;;;;;5031578;28;20435;-52
2023/04/09 01:02:08;;;;;;;11.73;10.63;;;14.20;54.60;;;;;;5031714;28;20912;-52
2023/04/09 01:04:35;;;;;;;13.30;11.93;;;14.10;54.50;;;;;;5031209;28;20507;-53
2023/04/09 01:07:22;;;;;;;12.77;11.30;;;14.10;55.20;;;;;;5031229;28;20190;-52
2023/04/09 01:10:24;;;;;;;14.60;13.17;;;14.10;54.80;;;;;;5030081;28;20476;-52
2023/04/09 01:13:11;;;;;;;11.13;10.07;;;14.00;54.90;;;;;;5031109;28;20435;-52
2023/04/09 01:15:45;;;;;;;11.77;10.57;;;14.00;55.00;;;;;;5031226;28;20475;-52
2023/04/09 01:18:20;;;;;;;11.80;10.60;;;14.00;55.20;;;;;;5031222;28;20428;-52
2023/04/09 01:20:58;;;;;;;14.03;11.63;;;14.00;55.30;;;;;;5029667;28;20972;-53
2023/04/09 01:23:42;;;;;;;12.33;11.10;;;14.00;55.40;;;;;;5030703;28;20439;-52
2023/04/09 01:26:26;;;;;;;13.57;10.30;;;14.00;55.50;;;;;;5031044;28;20438;-54
2023/04/09 01:28:56;;;;;;;12.50;11.07;;;14.00;55.50;;;;;;5031226;28;20517;-52
2023/04/09 01:31:29;;;;;;;9.80;8.90;;;13.90;55.40;;;;;;5031090;28;20432;-52
2023/04/09 01:33:56;;;;;;;10.27;9.00;;;13.90;55.40;;;;;;5030352;28;20956;-52
2023/04/09 01:36:23;;;;;;;10.27;9.37;;;13.90;55.40;;;;;;5030973;28;20477;-53
2023/04/09 01:38:50;;;;;;;10.80;9.80;;;13.90;55.40;;;;;;5030958;28;20509;-52
2023/04/09 01:41:20;;;;;;;11.53;10.33;;;13.90;55.40;;;;;;5031143;28;20424;-50
2023/04/09 01:43:50;;;;;;;11.67;10.20;;;13.90;55.50;;;;;;5030743;28;20439;-53
2023/04/09 01:46:18;;;;;;;14.07;10.57;;;13.80;55.40;;;;;;5030605;28;20432;-53
2023/04/09 01:48:44;;;;;;;10.27;9.27;;;13.80;55.40;;;;;;5029357;28;20784;-52
2023/04/09 01:51:12;;;;;;;10.73;9.73;;;13.90;55.40;;;;;;5030954;28;20837;-53
2023/04/09 01:53:39;;;;;;;11.00;9.90;;;13.90;55.30;;;;;;5029892;28;20501;-52
2023/04/09 01:56:06;;;;;;;11.30;10.20;;;13.80;55.40;;;;;;5030801;28;20519;-52
2023/04/09 01:58:33;;;;;;;11.20;10.10;;;13.80;55.40;;;;;;5030879;28;20439;-53
2023/04/09 02:01:36;;;;;;;11.93;10.73;;;13.80;55.40;;;;;;5030521;28;20489;-52
2023/04/09 02:04:06;;;;;;;11.83;10.70;;;13.80;55.40;;;;;;4988570;28;20490;-53
2023/04/09 02:06:54;;;;;;;11.80;10.70;;;13.80;55.30;;;;;;5023860;28;20451;-48
2023/04/09 02:09:22;;;;;;;12.10;10.80;;;13.80;55.20;;;;;;5030809;28;20515;-53
2023/04/09 02:11:49;;;;;;;12.73;10.30;;;13.80;55.20;;;;;;5030737;28;20841;-52
2023/04/09 02:14:16;;;;;;;11.50;10.30;;;13.80;55.20;;;;;;5028646;28;20495;-52
2023/04/09 02:16:42;;;;;;;11.43;10.33;;;13.70;55.10;;;;;;5030552;28;20428;-50
2023/04/09 02:19:07;;;;;;;11.47;10.40;;;13.70;55.30;;;;;;5030471;28;20443;-53
2023/04/09 02:21:33;;;;;;;11.40;10.40;;;13.70;55.40;;;;;;5030696;28;20668;-52
2023/04/09 02:23:59;;;;;;;11.20;10.17;;;13.70;55.50;;;;;;5030188;28;20558;-51
2023/04/09 02:26:25;;;;;;;12.00;10.90;;;13.70;55.50;;;;;;5030722;28;20209;-49
2023/04/09 02:28:50;;;;;;;13.00;11.10;;;13.70;55.60;;;;;;5030540;28;20268;-52
2023/04/09 02:31:16;;;;;;;11.70;10.60;;;13.40;56.00;;;;;;5030596;28;20543;-52
2023/04/09 02:33:42;;;;;;;12.17;11.07;;;13.50;56.00;;;;;;5030155;28;20703;-49
2023/04/09 02:36:14;;;;;;;12.67;10.80;;;13.50;55.90;;;;;;5030270;28;20717;-48
2023/04/09 02:38:41;;;;;;;11.77;10.67;;;13.60;55.80;;;;;;5030544;28;20201;-51
2023/04/09 02:41:07;;;;;;;11.30;10.20;;;13.60;55.80;;;;;;5028500;28;20448;-49
2023/04/09 02:43:32;;;;;;;11.60;10.40;;;13.70;55.80;;;;;;5030135;28;20416;-52
2023/04/09 02:45:58;;;;;;;10.87;9.87;;;13.70;55.80;;;;;;5030352;28;20452;-52
2023/04/09 02:48:23;;;;;;;12.07;10.90;;;13.50;55.80;;;;;;5030218;28;20255;-49
2023/04/09 02:50:49;;;;;;;10.80;9.80;;;13.50;56.10;;;;;;5029939;28;20193;-49
2023/04/09 02:53:15;;;;;;;12.77;10.60;;;13.60;56.10;;;;;;5029532;28;20243;-48
2023/04/09 02:55:40;;;;;;;11.40;10.20;;;13.60;56.00;;;;;;5030070;28;20185;-52
2023/04/09 02:58:06;;;;;;;12.23;11.13;;;13.60;56.10;;;;;;5030047;28;20201;-53
2023/04/09 03:00:31;;;;;;;13.23;11.77;;;13.60;56.10;;;;;;5030255;28;20194;-50
2023/04/09 03:02:57;;;;;;;12.17;10.30;;;13.60;55.90;;;;;;5032979;28;20189;-51
2023/04/09 03:05:23;;;;;;;10.80;9.80;;;13.60;55.80;;;;;;5033604;28;20193;-48
2023/04/09 03:07:48;;;;;;;11.43;10.23;;;13.60;56.00;;;;;;5031957;28;20596;-48
2023/04/09 03:10:14;;;;;;;11.43;10.27;;;13.60;55.80;;;;;;5033601;28;20189;-49
2023/04/09 03:12:40;;;;;;;11.40;10.13;;;13.60;55.80;;;;;;5033523;28;20197;-49
2023/04/09 03:15:06;;;;;;;11.70;9.90;;;13.60;55.80;;;;;;5033143;28;20259;-49
2023/04/09 03:17:31;;;;;;;11.63;10.53;;;13.60;55.90;;;;;;5033484;28;20608;-49
2023/04/09 03:19:57;;;;;;;10.23;9.33;;;13.60;55.90;;;;;;5033342;28;20432;-50
2023/04/09 03:22:23;;;;;;;12.00;10.90;;;13.50;55.90;;;;;;5033397;28;20226;-49
2023/04/09 03:24:48;;;;;;;10.43;9.43;;;13.50;55.90;;;;;;5033002;28;20519;-48
2023/04/09 03:27:14;;;;;;;12.27;11.00;;;13.50;56.00;;;;;;5033289;28;20193;-49
2023/04/09 03:29:40;;;;;;;12.50;11.23;;;13.50;56.50;;;;;;5033130;28;20197;-51
2023/04/09 03:32:05;;;;;;;11.93;10.23;;;13.50;56.10;;;;;;5033265;28;20648;-49
2023/04/09 03:34:31;;;;;;;11.80;10.60;;;13.50;56.20;;;;;;5031123;28;20236;-49
2023/04/09 03:36:56;;;;;;;13.73;10.53;;;13.50;56.30;;;;;;5033176;28;20641;-49
2023/04/09 03:39:22;;;;;;;11.23;10.23;;;13.50;56.20;;;;;;5033016;28;20662;-48
2023/04/09 03:41:47;;;;;;;10.87;9.87;;;13.50;56.20;;;;;;5033054;28;20201;-50
2023/04/09 03:44:13;;;;;;;12.37;11.17;;;13.50;56.20;;;;;;5032689;28;20189;-48
2023/04/09 03:46:38;;;;;;;9.60;8.70;;;13.50;56.20;;;;;;5032953;28;20276;-48
2023/04/09 03:49:04;;;;;;;10.37;9.40;;;13.50;56.20;;;;;;5032923;28;20199;-48
2023/04/09 03:51:30;;;;;;;11.43;10.27;;;13.50;56.20;;;;;;5032745;28;20197;-48
2023/04/09 03:53:56;;;;;;;11.67;9.93;;;13.50;56.20;;;;;;5031866;28;20228;-49
2023/04/09 03:56:22;;;;;;;11.63;10.53;;;13.50;56.10;;;;;;5033020;28;20428;-48
2023/04/09 03:58:48;;;;;;;11.70;10.67;;;13.50;56.10;;;;;;5032729;28;20193;-49
2023/04/09 04:01:14;;;;;;;11.03;10.03;;;13.50;56.00;;;;;;5030808;28;20197;-49
2023/04/09 04:03:39;;;;;;;11.73;10.57;;;13.50;56.00;;;;;;5032202;28;20442;-48
2023/04/09 04:06:05;;;;;;;11.10;10.00;;;13.50;56.30;;;;;;5032868;28;20782;-49
2023/04/09 04:08:31;;;;;;;12.33;11.10;;;13.40;56.20;;;;;;5032733;28;20208;-49
2023/04/09 04:11:02;;;;;;;11.60;10.50;;;13.40;56.30;;;;;;5032639;28;20197;-48
2023/04/09 04:13:28;;;;;;;11.50;10.40;;;13.40;56.30;;;;;;5032030;28;20235;-48
2023/04/09 04:15:53;;;;;;;12.27;10.27;;;13.40;56.30;;;;;;5032545;28;20543;-49
2023/04/09 04:18:19;;;;;;;11.13;10.03;;;13.40;56.30;;;;;;5032388;28;20205;-49
2023/04/09 04:20:44;;;;;;;11.73;10.57;;;13.30;56.50;;;;;;5032293;28;20229;-48
2023/04/09 04:23:10;;;;;;;12.40;11.10;;;13.20;56.60;;;;;;5031855;28;20588;-48
2023/04/09 04:25:36;;;;;;;11.23;9.70;;;13.20;56.80;;;;;;5032571;28;20248;-50
2023/04/09 04:28:01;;;;;;;11.43;10.33;;;13.10;56.80;;;;;;5030534;28;20197;-51
2023/04/09 04:30:27;;;;;;;11.37;10.30;;;13.10;56.90;;;;;;5032117;28;20231;-49
2023/04/09 04:32:52;;;;;;;11.43;10.27;;;13.10;56.90;;;;;;5031657;28;20560;-49
2023/04/09 04:35:18;;;;;;;11.57;10.03;;;13.10;56.90;;;;;;5032054;28;20224;-48
2023/04/09 04:37:43;;;;;;;11.13;10.10;;;13.10;57.00;;;;;;5031898;28;20204;-47
2023/04/09 04:40:09;;;;;;;10.63;9.73;;;13.10;57.00;;;;;;5032215;28;20193;-50
2023/04/09 04:42:35;;;;;;;10.60;9.50;;;13.10;57.00;;;;;;5031750;28;20193;-52
2023/04/09 04:45:00;;;;;;;10.50;9.50;;;13.10;57.00;;;;;;5032061;28;20192;-49
2023/04/09 04:47:26;;;;;;;11.30;10.20;;;13.10;56.90;;;;;;5031652;28;20665;-48
2023/04/09 04:49:52;;;;;;;11.97;10.77;;;13.10;57.10;;;;;;5031909;28;20621;-48
2023/04/09 04:52:17;;;;;;;12.87;11.07;;;13.10;57.00;;;;;;5031868;28;20201;-51
2023/04/09 04:54:43;;;;;;;10.07;9.03;;;13.20;57.00;;;;;;5030137;28;20245;-51
2023/04/09 04:57:09;;;;;;;10.10;9.10;;;13.20;56.90;;;;;;5030919;28;20267;-48
2023/04/09 04:59:38;;;;;;;11.00;10.00;;;13.10;56.90;;;;;;5031667;28;20280;-49
2023/04/09 05:02:07;;;;;;;11.13;10.00;;;13.10;57.10;;;;;;5031640;28;20201;-49
2023/04/09 05:04:33;;;;;;;10.50;9.53;;;13.00;57.10;;;;;;5031280;28;20907;-48
2023/04/09 05:06:58;;;;;;;12.53;9.50;;;13.00;57.10;;;;;;5031601;28;20438;-52
2023/04/09 05:09:24;;;;;;;11.47;10.37;;;13.00;57.20;;;;;;5031650;28;20223;-50
2023/04/09 05:11:50;;;;;;;11.80;10.70;;;13.00;57.30;;;;;;5031443;28;20553;-48
2023/04/09 05:14:16;;;;;;;11.10;10.00;;;13.00;57.40;;;;;;5031043;28;20565;-48
2023/04/09 05:16:41;;;;;;;11.23;10.13;;;12.80;57.70;;;;;;5031399;28;20223;-48
2023/04/09 05:19:07;;;;;;;11.33;10.10;;;12.80;57.90;;;;;;5031467;28;20224;-50
2023/04/09 05:21:32;;;;;;;10.63;9.57;;;12.80;58.00;;;;;;5030747;28;20200;-52
2023/04/09 05:23:58;;;;;;;14.60;11.40;;;12.90;58.00;;;;;;5029529;28;20243;-50
2023/04/09 05:26:24;;;;;;;11.70;10.50;;;13.00;57.90;;;;;;5031090;28;20197;-50
2023/04/09 05:28:49;;;;;;;11.37;10.17;;;13.00;57.90;;;;;;5030927;28;20560;-49
2023/04/09 05:31:15;;;;;;;11.27;10.13;;;13.00;57.90;;;;;;5031571;28;20224;-50
2023/04/09 05:33:41;;;;;;;15.63;11.07;;;13.00;58.00;;;;;;5030668;28;20280;-48
2023/04/09 05:36:07;;;;;;;11.63;10.50;;;13.00;58.10;;;;;;5030896;28;20589;-48
2023/04/09 05:38:33;;;;;;;10.83;9.83;;;13.00;58.20;;;;;;5029814;28;20475;-48
2023/04/09 05:40:59;;;;;;;12.73;11.30;;;13.10;58.20;;;;;;5030864;28;20225;-50
2023/04/09 05:43:25;;;;;;;12.80;11.37;;;13.10;58.10;;;;;;5030541;28;20437;-48
2023/04/09 05:45:50;;;;;;;12.50;11.00;;;13.10;58.10;;;;;;5030952;28;20770;-48
2023/04/09 05:48:17;;;;;;;10.90;9.80;;;13.10;58.10;;;;;;5030767;28;20319;-49
2023/04/09 05:50:51;;;;;;;9.90;9.00;;;12.90;58.00;;;;;;5029123;28;20193;-49
2023/04/09 05:53:18;;;;;;;11.50;10.40;;;12.80;59.00;;;;;;5030236;28;20517;-51
2023/04/09 05:55:44;;;;;;;11.20;10.10;;;12.80;59.10;;;;;;5030723;28;20825;-49
2023/04/09 05:58:09;;;;;;;11.87;10.67;;;12.80;59.70;;;;;;5030726;28;20497;-48
2023/04/09 06:00:35;;;;;;;11.33;10.17;;;12.60;59.40;;;;;;5030884;28;20432;-49
2023/04/09 06:03:01;;;;;;;11.03;9.83;;;12.80;59.40;;;;;;5030407;28;20672;-48
2023/04/09 06:05:27;;;;;;;11.17;9.30;;;12.70;58.90;;;;;;5030723;28;20196;-49
2023/04/09 06:07:52;;;;;;;11.67;10.50;;;12.70;59.10;;;;;;5030599;28;20259;-48
2023/04/09 06:10:18;;;;;;;12.27;10.87;;;12.70;59.50;;;;;;5030710;28;20427;-49
2023/04/09 06:12:44;;;;;;;11.10;10.00;;;12.50;59.00;;;;;;5030570;28;20609;-49
2023/04/09 06:15:10;;;;;;;12.60;10.73;;;12.50;59.10;;;;;;5030733;28;20279;-49
2023/04/09 06:17:35;;;;;;;11.37;10.27;;;12.40;59.30;;;;;;5029081;28;20649;-49
2023/04/09 06:20:01;;;;;;;11.30;10.10;;;12.30;59.30;;;;;;5030751;28;20490;-49
2023/04/09 06:22:26;;;;;;;10.93;9.83;;;12.40;59.10;;;;;;5030287;28;20185;-49
2023/04/09 06:24:52;;;;;;;11.27;10.03;;;12.70;59.00;;;;;;5030693;28;20684;-48
2023/04/09 06:27:18;;;;;;;10.00;9.00;;;12.80;58.70;;;;;;5030512;28;20602;-48
2023/04/09 06:29:46;;;;;;;11.87;10.47;;;13.20;58.00;;;;;;5030602;28;20189;-49
2023/04/09 06:32:11;;;;;;;11.03;9.83;;;13.40;56.70;;;;;;5030295;28;20645;-49
2023/04/09 06:34:37;;;;;;;12.73;10.63;;;12.90;57.20;;;;;;5030359;28;20479;-49
2023/04/09 06:37:02;;;;;;;12.07;10.10;;;12.80;57.50;;;;;;5032723;28;20217;-49
2023/04/09 06:39:28;;;;;;;11.60;10.40;;;12.60;57.60;;;;;;5034161;28;20193;-49
2023/04/09 06:41:53;;;;;;;11.80;10.60;;;12.80;57.80;;;;;;5034153;28;20200;-48
2023/04/09 06:44:20;;;;;;;12.37;10.37;;;12.60;57.70;;;;;;5032143;28;20205;-50
2023/04/09 06:46:45;;;;;;;13.27;10.57;;;12.70;57.30;;;;;;5034043;28;20711;-48
2023/04/09 06:49:11;;;;;;;12.50;10.53;;;12.50;57.20;;;;;;5034037;28;20573;-48
2023/04/09 06:51:36;;;;;;;13.00;10.80;;;12.30;57.60;;;;;;5034129;28;20258;-48
2023/04/09 06:54:02;;;;;;;11.03;9.93;;;12.10;58.00;;;;;;5033347;28;20237;-48
2023/04/09 06:56:28;;;;;;;12.57;11.30;;;12.20;58.50;;;;;;5033745;28;20204;-50
2023/04/09 06:58:53;;;;;;;12.57;10.53;;;12.40;58.40;;;;;;5033875;28;20197;-52
2023/04/09 07:01:19;;;;;;;17.13;10.87;;;12.70;57.70;;;;;;5033621;28;20193;-52
2023/04/09 07:03:45;;;;;;;12.00;10.80;;;12.80;57.10;;;;;;5033103;28;20876;-50
2023/04/09 07:06:11;;;;;;;14.27;10.73;;;13.10;56.60;;;;;;5033648;28;20193;-53
2023/04/09 07:08:36;;;;;;;11.80;10.60;;;13.00;56.30;;;;;;5033535;28;20438;-50
2023/04/09 07:11:02;;;;;;;12.27;11.10;;;13.20;56.40;;;;;;5030796;28;20569;-53
2023/04/09 07:13:28;;;;;;;10.37;9.27;;;13.50;55.30;;;;;;5033064;28;20251;-53
2023/04/09 07:15:53;;;;;;;11.73;10.53;;;13.80;55.20;;;;;;5033586;28;20189;-52
2023/04/09 07:18:19;;;;;;;11.67;10.20;;;14.00;53.90;;;;;;5033283;28;20196;-52
2023/04/09 07:20:45;;;;;;;11.47;10.37;;;13.70;54.40;;;;;;5033311;28;20733;-52
2023/04/09 07:23:10;;;;;;;11.40;10.30;;;13.80;53.70;;;;;;5032979;28;20228;-51
2023/04/09 07:25:36;;;;;;;10.27;9.30;;;13.80;54.10;;;;;;5033246;28;20189;-53
2023/04/09 07:28:02;;;;;;;11.20;10.10;;;13.90;53.70;;;;;;5033340;28;20250;-51
2023/04/09 07:30:27;;;;;;;10.30;9.40;;;14.10;53.70;;;;;;5033003;28;20202;-51
2023/04/09 07:32:53;;;;;;;11.83;9.80;;;14.20;52.40;;;;;;5032535;28;20601;-52
2023/04/09 07:35:19;;;;;;;10.87;9.73;;;14.00;52.30;;;;;;5032921;28;20260;-52
2023/04/09 07:37:45;;;;;;;10.17;9.20;;;14.20;52.90;;;;;;5031507;28;20431;-52
2023/04/09 07:40:11;;;;;;;11.93;8.93;;;14.00;52.20;;;;;;5033181;28;20252;-51
2023/04/09 07:42:38;;;;;;;9.23;8.33;;;14.00;50.80;;;;;;5032502;28;20193;-51
2023/04/09 07:45:05;;;;;;;8.50;7.70;;;14.30;50.10;;;;;;5033076;28;20225;-50
2023/04/09 07:47:31;;;;;;;7.83;6.70;;;14.50;48.70;;;;;;5032396;28;20464;-51
2023/04/09 07:49:56;;;;;;;8.30;7.50;;;14.60;47.80;;;;;;5032709;28;20439;-49
2023/04/09 07:52:22;;;;;;;9.20;8.30;;;14.80;48.10;;;;;;5032303;28;20424;-52
2023/04/09 07:54:48;;;;;;;8.63;7.80;;;15.00;48.90;;;;;;5032484;28;20577;-50
2023/04/09 07:57:13;;;;;;;8.87;8.00;;;15.50;48.70;;;;;;5032620;28;20200;-52
2023/04/09 07:59:39;;;;;;;8.30;7.50;;;15.60;46.50;;;;;;5032601;28;20660;-48
2023/04/09 08:02:04;;;;;;;9.37;8.57;;;15.30;47.30;;;;;;5032663;28;20760;-50
2023/04/09 08:04:30;;;;;;;9.43;8.53;;;15.20;48.50;;;;;;5030754;28;20193;-51
2023/04/09 08:06:56;;;;;;;9.67;8.67;;;14.60;48.90;;;;;;5032634;28;20197;-49
2023/04/09 08:09:22;;;;;;;9.63;7.60;;;14.60;49.30;;;;;;5032465;28;20474;-52
2023/04/09 08:11:48;;;;;;;9.40;8.40;;;14.60;48.10;;;;;;5032408;28;20193;-49
2023/04/09 08:14:15;;;;;;;8.67;7.87;;;14.90;49.10;;;;;;5031838;28;20595;-49
2023/04/09 08:16:48;;;;;;;8.10;7.30;;;15.30;47.80;;;;;;5032296;28;20463;-48
2023/04/09 08:19:16;;;;;;;10.77;9.40;;;15.80;47.50;;;;;;5032469;28;20442;-48
2023/04/09 08:21:42;;;;;;;9.70;8.70;;;15.70;47.00;;;;;;5032165;28;20477;-48
2023/04/09 08:24:11;;;;;;;9.33;8.40;;;15.90;47.40;;;;;;5031710;28;20428;-49
2023/04/09 08:26:37;;;;;;;8.80;8.00;;;16.20;46.80;;;;;;5032294;28;20427;-50
2023/04/09 08:29:03;;;;;;;7.80;7.07;;;16.10;45.10;;;;;;5032292;28;20428;-49
2023/04/09 08:31:29;;;;;;;7.57;6.87;;;16.10;44.50;;;;;;5030524;28;20424;-49
2023/04/09 08:33:55;;;;;;;8.97;7.67;;;16.10;44.90;;;;;;5031580;28;21226;-48
2023/04/09 08:36:21;;;;;;;9.23;8.27;;;15.60;44.40;;;;;;5032024;28;20683;-49
2023/04/09 08:38:47;;;;;;;8.70;7.90;;;15.30;45.10;;;;;;5031969;28;20201;-52
2023/04/09 08:41:17;;;;;;;8.70;7.90;;;15.50;46.40;;;;;;5031896;28;20201;-49
2023/04/09 08:43:47;;;;;;;7.57;6.87;;;15.90;46.10;;;;;;5031326;28;20436;-52
2023/04/09 08:46:16;;;;;;;7.93;7.23;;;16.00;44.50;;;;;;5031562;28;20424;-48
2023/04/09 08:48:45;;;;;;;8.60;7.80;;;16.20;44.90;;;;;;5031264;28;20477;-49
2023/04/09 08:51:15;;;;;;;7.57;6.87;;;16.60;43.90;;;;;;5031915;28;20919;-50
2023/04/09 08:53:46;;;;;;;7.30;6.60;;;16.90;42.90;;;;;;5030934;28;20464;-48
2023/04/09 08:56:13;;;;;;;7.30;6.60;;;16.80;41.70;;;;;;5031445;28;20432;-51
2023/04/09 08:58:43;;;;;;;7.20;6.50;;;16.80;42.20;;;;;;5029251;28;20451;-51
2023/04/09 09:01:19;;;;;;;8.43;7.63;;;16.30;41.90;;;;;;5031437;28;20420;-51
2023/04/09 09:04:00;;;;;;;8.40;7.60;;;16.30;42.50;;;;;;5030955;28;20502;-51
2023/04/09 09:06:28;;;;;;;8.97;8.00;;;16.30;43.50;;;;;;5031308;28;20443;-53
2023/04/09 09:09:15;;;;;;;9.10;8.20;;;16.30;43.40;;;;;;5031663;28;20853;-53
2023/04/09 09:11:45;;;;;;;8.10;7.33;;;16.60;43.80;;;;;;5031296;28;20439;-52
2023/04/09 09:14:17;;;;;;;9.57;8.67;;;16.90;43.20;;;;;;5030858;28;20476;-52
2023/04/09 09:17:02;;;;;;;8.03;7.33;;;17.10;42.30;;;;;;5031172;28;20435;-52
2023/04/09 09:19:30;;;;;;;8.80;8.00;;;17.50;42.50;;;;;;5031011;28;20474;-53
2023/04/09 09:21:57;;;;;;;9.53;8.67;;;17.90;41.20;;;;;;5031316;28;21194;-53
2023/04/09 09:24:22;;;;;;;8.73;7.93;;;18.10;40.40;;;;;;5029117;28;20984;-52
2023/04/09 09:26:48;;;;;;;7.83;7.13;;;18.10;40.80;;;;;;5031136;28;20432;-53
2023/04/09 09:29:14;;;;;;;8.10;7.40;;;18.10;40.20;;;;;;5030998;28;20193;-51
2023/04/09 09:31:51;;;;;;;7.50;6.83;;;17.60;39.60;;;;;;5031128;28;20189;-52
2023/04/09 09:34:18;;;;;;;8.13;7.40;;;17.60;40.60;;;;;;5030647;28;20220;-52
2023/04/09 09:36:45;;;;;;;7.97;7.27;;;17.70;40.10;;;;;;5030993;28;20436;-53
2023/04/09 09:39:12;;;;;;;7.90;7.20;;;17.60;39.30;;;;;;5030948;28;20794;-51
2023/04/09 09:41:39;;;;;;;7.10;6.50;;;17.00;41.70;;;;;;5030726;28;20511;-53
2023/04/09 09:44:06;;;;;;;8.23;7.53;;;17.30;40.70;;;;;;5030497;28;20458;-52
2023/04/09 09:46:37;;;;;;;8.47;7.67;;;17.40;40.10;;;;;;5030955;28;20428;-54
2023/04/09 09:49:03;;;;;;;8.20;7.50;;;17.60;40.20;;;;;;5030807;28;20803;-50
2023/04/09 09:51:31;;;;;;;7.63;6.83;;;18.00;39.80;;;;;;5029132;28;20428;-53
2023/04/09 09:53:58;;;;;;;9.17;8.37;;;18.10;39.40;;;;;;5029851;28;20497;-50
2023/04/09 09:56:31;;;;;;;7.40;6.70;;;18.00;39.40;;;;;;5030852;28;20745;-53
2023/04/09 09:59:22;;;;;;;7.17;6.53;;;18.30;39.30;;;;;;5030959;28;20440;-52
2023/04/09 10:01:54;;;;;;;6.83;6.33;;;18.10;38.90;;;;;;5030427;28;20447;-53
2023/04/09 10:04:21;;;;;;;7.30;6.60;;;17.90;38.70;;;;;;5030212;28;20424;-49
2023/04/09 10:06:48;;;;;;;7.63;7.03;;;17.10;40.80;;;;;;5030691;28;20473;-54
2023/04/09 10:09:13;;;;;;;6.90;6.30;;;17.30;40.60;;;;;;5030478;28;20413;-52
2023/04/09 10:11:44;;;;;;;8.37;7.60;;;17.50;39.80;;;;;;5033961;28;20420;-53
2023/04/09 10:14:11;;;;;;;8.17;7.47;;;17.50;40.10;;;;;;5034126;28;20225;-49
2023/04/09 10:16:36;;;;;;;7.47;6.87;;;17.60;39.60;;;;;;5034505;28;20923;-52
2023/04/09 10:19:02;;;;;;;7.73;7.13;;;17.70;39.40;;;;;;5033066;28;20486;-53
2023/04/09 10:21:44;;;;;;;7.10;6.50;;;17.90;39.70;;;;;;5034401;28;20207;-51
2023/04/09 10:24:10;;;;;;;5.77;5.27;;;18.20;38.40;;;;;;5034051;28;20566;-53
2023/04/09 10:26:40;;;;;;;6.80;6.30;;;18.10;38.00;;;;;;5034299;28;20424;-53
2023/04/09 10:29:08;;;;;;;5.80;5.30;;;18.10;37.40;;;;;;5034173;28;20435;-52
2023/04/09 10:32:05;;;;;;;6.80;5.20;;;18.10;37.90;;;;;;5034588;28;20517;-51
2023/04/09 10:34:41;;;;;;;5.97;5.47;;;18.30;37.50;;;;;;5034199;28;20566;-53
2023/04/09 10:37:08;;;;;;;4.57;4.17;;;18.40;36.60;;;;;;5034193;28;20493;-53
2023/04/09 10:39:44;;;;;;;5.57;5.10;;;18.40;36.30;;;;;;5034323;28;20519;-51
2023/04/09 10:42:31;;;;;;;4.90;4.50;;;18.10;35.50;;;;;;5033681;28;20845;-49
2023/04/09 10:45:13;;;;;;;5.57;5.07;;;18.10;35.80;;;;;;5032444;28;20535;-49
2023/04/09 10:47:42;;;;;;;5.30;4.80;;;18.20;36.40;;;;;;5033790;28;20466;-51
2023/04/09 10:50:26;;;;;;;5.33;4.83;;;18.10;34.60;;;;;;5033970;28;20435;-50
2023/04/09 10:52:58;;;;;;;4.43;4.13;;;17.60;35.20;;;;;;5033169;28;20833;-50
2023/04/09 10:55:33;;;;;;;5.77;5.00;;;17.50;35.90;;;;;;5033517;28;20649;-52
2023/04/09 10:57:59;;;;;;;5.10;4.70;;;17.60;35.70;;;;;;5033786;28;20446;-51
2023/04/09 11:00:24;;;;;;;4.83;4.43;;;17.20;35.60;;;;;;5033602;28;20424;-52
2023/04/09 11:03:00;;;;;;;4.93;4.50;;;17.50;35.70;;;;;;5033462;28;20578;-52
2023/04/09 11:05:31;;;;;;;5.27;4.77;;;18.00;35.10;;;;;;5033768;28;20197;-53
2023/04/09 11:08:08;;;;;;;5.73;5.23;;;17.90;35.00;;;;;;5033653;28;20439;-52
2023/04/09 11:10:35;;;;;;;6.37;5.77;;;18.10;35.40;;;;;;5033686;28;20439;-53
2023/04/09 11:13:01;;;;;;;6.07;5.57;;;17.90;35.10;;;;;;5031741;28;20420;-49
2023/04/09 11:15:28;;;;;;;5.93;5.50;;;17.70;35.30;;;;;;5033441;28;20946;-52
2023/04/09 11:17:54;;;;;;;4.93;4.37;;;17.40;36.30;;;;;;5033227;28;20427;-52
2023/04/09 11:20:22;;;;;;;4.80;4.40;;;17.50;35.60;;;;;;5033404;28;20570;-51
2023/04/09 11:22:52;;;;;;;5.47;5.07;;;18.10;35.80;;;;;;5032546;28;20507;-53
2023/04/09 11:25:19;;;;;;;5.27;4.83;;;18.30;35.30;;;;;;5033458;28;20574;-49
2023/04/09 11:27:46;;;;;;;5.70;5.10;;;18.10;35.00;;;;;;5033347;28;20503;-52
2023/04/09 11:30:12;;;;;;;4.67;4.27;;;18.30;34.50;;;;;;5033206;28;20431;-50
2023/04/09 11:32:37;;;;;;;4.87;4.37;;;18.30;35.40;;;;;;5032773;28;20432;-53
2023/04/09 11:35:03;;;;;;;3.93;3.63;;;18.70;34.20;;;;;;5033193;28;20471;-53
2023/04/09 11:37:29;;;;;;;4.43;4.03;;;19.10;33.80;;;;;;5033022;28;20201;-49
2023/04/09 11:39:57;;;;;;;4.57;4.13;;;19.60;33.60;;;;;;5031356;28;20477;-49
2023/04/09 11:42:24;;;;;;;5.43;5.03;;;19.60;32.60;;;;;;5032235;28;20428;-52
2023/04/09 11:44:51;;;;;;;3.93;3.63;;;19.40;32.70;;;;;;5032745;28;20439;-53
2023/04/09 11:47:17;;;;;;;4.70;4.30;;;20.00;33.50;;;;;;5032847;28;20460;-49
2023/04/09 11:49:43;;;;;;;4.40;4.00;;;20.40;31.80;;;;;;5031766;28;20890;-50
2023/04/09 11:52:09;;;;;;;4.63;4.23;;;20.50;30.60;;;;;;5032367;28;20193;-53
2023/04/09 11:54:35;;;;;;;5.00;4.60;;;20.30;32.10;;;;;;5032584;28;20519;-50
2023/04/09 11:57:04;;;;;;;5.17;4.77;;;20.40;32.50;;;;;;5032878;28;20972;-50
2023/04/09 11:59:30;;;;;;;4.80;4.50;;;20.60;32.70;;;;;;5032536;28;20641;-50
2023/04/09 12:01:59;;;;;;;4.47;4.17;;;20.80;31.70;;;;;;5029769;28;20430;-48
2023/04/09 12:04:24;;;;;;;5.07;4.67;;;20.90;31.00;;;;;;5032751;28;20189;-49
2023/04/09 12:06:50;;;;;;;4.33;4.00;;;21.20;32.70;;;;;;5030988;28;20424;-52
2023/04/09 12:09:16;;;;;;;4.73;4.33;;;21.20;31.80;;;;;;5032537;28;20271;-49
2023/04/09 12:11:43;;;;;;;4.50;4.20;;;21.40;32.10;;;;;;5032448;28;20435;-49
2023/04/09 12:14:13;;;;;;;4.57;4.27;;;21.50;30.10;;;;;;5031801;28;21145;-54
2023/04/09 12:16:45;;;;;;;4.97;4.57;;;21.50;29.80;;;;;;5031990;28;20437;-50
2023/04/09 12:19:12;;;;;;;5.00;4.60;;;21.60;30.20;;;;;;5032247;28;20497;-52
2023/04/09 12:21:57;;;;;;;4.40;4.00;;;21.50;30.60;;;;;;5032425;28;21046;-51
2023/04/09 12:24:24;;;;;;;4.70;4.30;;;21.80;31.30;;;;;;5032061;28;20451;-53
2023/04/09 12:26:50;;;;;;;4.73;4.20;;;21.60;29.90;;;;;;5032122;28;20439;-50
2023/04/09 12:29:18;;;;;;;4.17;3.87;;;21.60;29.70;;;;;;5032254;28;20467;-53
2023/04/09 12:31:45;;;;;;;3.93;3.63;;;21.60;30.00;;;;;;5032084;28;20432;-49
2023/04/09 12:34:11;;;;;;;4.57;4.10;;;21.70;29.70;;;;;;5028922;28;20943;-52
2023/04/09 12:36:38;;;;;;;5.00;4.60;;;22.00;29.70;;;;;;5031873;28;20448;-49
2023/04/09 12:39:03;;;;;;;4.13;3.83;;;22.20;29.60;;;;;;5032044;28;20456;-49